Flight Track Log - Related Links

Times and Time Zones

All times are in EDT time to prevent confusion due to time zone crossing. See the JAI305 flight status page for this flight to view local times or setup timezone preferences in your user account.

Time Position Orientation Groundspeed Altitude Reporting Facility
EDT Latitude Longitude Course Direction KTS MPH feet Rate Location/Type
Wed 11:14:22 PM 28.5490 77.0580 101° East 177 204 1,800  Level FlightAware ADS-B
Wed 11:14:47 PM 28.5550 77.0340 286° West 201 231 2,400 2,073 Climbing FlightAware ADS-B
Wed 11:15:17 PM 28.5470 76.9850 259° West 242 278 3,700 1,800 Climbing FlightAware ADS-B
Wed 11:15:47 PM 28.5350 76.9470 250° West 284 327 4,200 500 Climbing FlightAware ADS-B
Wed 11:16:17 PM 28.5210 76.9010 251° West 304 350 4,200  Level FlightAware ADS-B
Wed 11:16:37 PM 28.5140 76.8700 256° West 315 362 4,200 873 Level FlightAware ADS-B
Wed 11:17:12 PM 28.5260 76.8120 283° West 324 373 5,000 2,000 Climbing FlightAware ADS-B
Wed 11:17:37 PM 28.5350 76.7720 284° West 325 374 6,200 3,055 Climbing FlightAware ADS-B
Wed 11:18:07 PM 28.5470 76.7210 285° West 325 374 7,800 3,100 Climbing FlightAware ADS-B
Wed 11:18:37 PM 28.5650 76.6750 294° West 328 377 9,300 2,829 Climbing FlightAware ADS-B
Wed 11:19:17 PM 28.6000 76.6170 305° West 338 389 11,100 2,775 Climbing FlightAware ADS-B
Wed 11:19:57 PM 28.6350 76.5610 305° West 346 398 13,000 2,894 Climbing FlightAware ADS-B
Wed 11:20:42 PM 28.6780 76.4890 304° West 357 411 15,200 2,965 Climbing FlightAware ADS-B
Wed 11:21:22 PM 28.7150 76.4290 305° West 367 422 17,200 2,925 Climbing FlightAware ADS-B
Wed 11:22:02 PM 28.7570 76.3600 305° West 380 437 19,100 2,625 Climbing FlightAware ADS-B
Wed 11:22:42 PM 28.7940 76.2980 304° West 389 448 20,700 2,612 Climbing FlightAware ADS-B
Wed 11:23:27 PM 28.8430 76.2160 304° West 396 456 22,800 2,667 Climbing FlightAware ADS-B
Wed 11:24:12 PM 28.8900 76.1370 304° West 399 459 24,700 2,541 Climbing FlightAware ADS-B
Wed 11:24:52 PM 28.9330 76.0660 305° West 398 458 26,400 2,541 Climbing FlightAware ADS-B
Wed 11:25:37 PM 28.9780 75.9910 304° West 391 450 28,300 2,329 Climbing FlightAware ADS-B
Wed 11:26:17 PM 29.0200 75.9220 305° West 393 452 29,700 1,275 Climbing FlightAware ADS-B
Wed 11:26:57 PM 29.0610 75.8520 304° West 395 455 30,000 212 Climbing FlightAware ADS-B
Wed 11:27:42 PM 29.1060 75.7770 304° West 394 453 30,000  Level FlightAware ADS-B
Wed 11:28:22 PM 29.1450 75.7100 304° West 393 452 30,000  Level FlightAware ADS-B
Wed 11:29:07 PM 29.1920 75.6310 304° West 391 450 30,000  Level FlightAware ADS-B
Wed 11:29:47 PM 29.2330 75.5620 304° West 391 450 30,000  Level FlightAware ADS-B
Wed 11:30:27 PM 29.2740 75.4930 304° West 390 449 30,000  Level FlightAware ADS-B
Wed 11:31:12 PM 29.3210 75.4190 306° West 395 455 30,000  Level FlightAware ADS-B
Wed 11:31:27 PM 29.3460 75.4000 326° Northwest 401 461 30,000  Level FlightAware ADS-B
Wed 11:32:07 PM 29.4180 75.3840 349° North 405 466 30,000  Level FlightAware ADS-B
Wed 11:32:47 PM 29.4930 75.3720 352° North 401 461 30,000  Level FlightAware ADS-B
Wed 11:33:32 PM 29.5770 75.3590 352° North 399 459 30,000  Level FlightAware ADS-B
Wed 11:34:12 PM 29.6500 75.3470 352° North 399 459 30,000  Level FlightAware ADS-B
Wed 11:34:52 PM 29.7230 75.3360 353° North 400 460 30,000  Level FlightAware ADS-B
Wed 11:35:37 PM 29.8040 75.3230 352° North 400 460 30,000  Level FlightAware ADS-B
Wed 11:36:17 PM 29.8780 75.3100 351° North 400 460 30,000  Level FlightAware ADS-B
Wed 11:36:57 PM 29.9530 75.2980 352° North 399 459 30,000 -494 Level FlightAware ADS-B
Wed 11:37:42 PM 30.0340 75.2850 352° North 389 448 29,300 -918 Descending FlightAware ADS-B
Wed 11:38:22 PM 30.1020 75.2740 352° North 380 437 28,700 -988 Descending FlightAware ADS-B
Wed 11:39:07 PM 30.1810 75.2610 352° North 374 430 27,900 -1,341 Descending FlightAware ADS-B
Wed 11:39:47 PM 30.2500 75.2500 352° North 367 422 26,800 -1,725 Descending FlightAware ADS-B
Wed 11:40:27 PM 30.3160 75.2390 352° North 359 413 25,600 -1,835 Descending FlightAware ADS-B
Wed 11:41:12 PM 30.3920 75.2270 352° North 351 404 24,200 -1,765 Descending FlightAware ADS-B
Wed 11:41:52 PM 30.4520 75.2170 352° North 344 396 23,100 -1,694 Descending FlightAware ADS-B
Wed 11:42:37 PM 30.5240 75.2050 352° North 338 389 21,800 -1,694 Descending FlightAware ADS-B
Wed 11:43:17 PM 30.5860 75.1950 352° North 338 389 20,700 -1,694 Descending FlightAware ADS-B
Wed 11:44:02 PM 30.6570 75.1830 352° North 342 394 19,400 -1,694 Descending FlightAware ADS-B
Wed 11:44:42 PM 30.7180 75.1730 352° North 342 394 18,300 -1,725 Descending FlightAware ADS-B
Wed 11:45:22 PM 30.7830 75.1620 352° North 335 386 17,100 -1,694 Descending FlightAware ADS-B
Wed 11:46:07 PM 30.8480 75.1420 345° North 323 372 15,900 -1,694 Descending FlightAware ADS-B
Wed 11:46:47 PM 30.9040 75.1190 341° North 316 364 14,700 -1,650 Descending FlightAware ADS-B
Wed 11:47:27 PM 30.9570 75.0970 340° North 309 356 13,700 -1,553 Descending FlightAware ADS-B
Wed 11:48:12 PM 31.0200 75.0720 341° North 302 348 12,500 -1,553 Descending FlightAware ADS-B
Wed 11:48:52 PM 31.0710 75.0520 341° North 295 339 11,500 -1,553 Descending FlightAware ADS-B
Wed 11:49:37 PM 31.1280 75.0290 341° North 288 331 10,300 -1,371 Descending FlightAware ADS-B
Wed 11:50:02 PM 31.1580 75.0170 341° North 281 323 9,900 -1,309 Descending FlightAware ADS-B
Wed 11:50:32 PM 31.1960 75.0010 340° North 275 316 9,100 -1,467 Descending FlightAware ADS-B
Wed 11:50:47 PM 31.2140 74.9940 342° North 273 314 8,800 -1,200 Descending FlightAware ADS-B
Wed 11:51:12 PM 31.2420 74.9830 341° North 270 311 8,300 -982 Descending FlightAware ADS-B
Wed 11:51:42 PM 31.2770 74.9690 341° North 256 295 7,900 -655 Descending FlightAware ADS-B
Wed 11:52:07 PM 31.3050 74.9580 341° North 241 277 7,700 -545 Descending FlightAware ADS-B
Wed 11:52:37 PM 31.3350 74.9450 340° North 224 258 7,400 -600 Descending FlightAware ADS-B
Wed 11:53:07 PM 31.3640 74.9340 342° North 214 246 7,100 -873 Descending FlightAware ADS-B
Wed 11:53:32 PM 31.3860 74.9250 341° North 212 244 6,600 -1,200 Descending FlightAware ADS-B
Wed 11:54:02 PM 31.4140 74.9140 341° North 207 238 6,000 -1,200 Descending FlightAware ADS-B
Wed 11:54:32 PM 31.4430 74.9060 347° North 204 235 5,400 -1,067 Descending FlightAware ADS-B
Wed 11:54:47 PM 31.4570 74.9030 350° North 203 234 5,200 -267 Descending FlightAware ADS-B
Wed 11:55:17 PM 31.4800 74.8960 345° North 203 234 5,200  Level FlightAware ADS-B
Wed 11:58:00 PM 31.6526 74.8227 340° North  Level Estimated
Wed 11:59:00 PM 31.7078 74.7992 340° North  Level Estimated
Thu 12:00:00 AM 31.7078 74.7992 320° Northwest  Level Estimated
Thu 12:01:00 AM 31.7078 74.7992 320° Northwest  Level Estimated
Thu 12:02:00 AM 31.7078 74.7992 320° Northwest  Level Estimated
Thu 12:03:00 AM 31.7078 74.7992 320° Northwest  Level Estimated
Thu 12:04:00 AM 31.7078 74.7992 320° Northwest  Level Estimated
Thu 12:05:00 AM 31.7078 74.7992 320° Northwest  Level Estimated
Thu 12:06:00 AM 31.7078 74.7992 320° Northwest  Level Estimated
Thu 12:07:00 AM 31.7078 74.7992 320° Northwest  Level Estimated
Thu 12:08:00 AM 31.7078 74.7992 320° Northwest  Level Estimated
Thu 12:09:00 AM 31.7078 74.7992 320° Northwest  Level Estimated
Thu 12:10:00 AM 31.7078 74.7992 320° Northwest  Level Estimated
Thu 12:11:00 AM 31.7078 74.7992 320° Northwest  Level Estimated

Login

Don't have an account? Register now (free) for customized features, flight alerts, and more!